sensor_id;sensor_type;location;lat;lon;timestamp;P1;durP1;ratioP1;P2;durP2;ratioP2
35496;SDS011;21609;49.298;6.844;2024-01-25T00:01:06;1.35;;;0.85;;
35496;SDS011;21609;49.298;6.844;2024-01-25T00:03:31;1.05;;;0.60;;
35496;SDS011;21609;49.298;6.844;2024-01-25T00:05:57;3.15;;;0.82;;
35496;SDS011;21609;49.298;6.844;2024-01-25T00:08:23;1.35;;;0.93;;
35496;SDS011;21609;49.298;6.844;2024-01-25T00:10:48;0.75;;;0.65;;
35496;SDS011;21609;49.298;6.844;2024-01-25T00:13:14;2.38;;;0.85;;
35496;SDS011;21609;49.298;6.844;2024-01-25T00:15:39;0.88;;;0.82;;
35496;SDS011;21609;49.298;6.844;2024-01-25T00:18:05;1.20;;;1.05;;
35496;SDS011;21609;49.298;6.844;2024-01-25T00:20:30;1.02;;;0.75;;
35496;SDS011;21609;49.298;6.844;2024-01-25T00:22:56;1.33;;;0.90;;
35496;SDS011;21609;49.298;6.844;2024-01-25T00:25:22;1.75;;;0.90;;
35496;SDS011;21609;49.298;6.844;2024-01-25T00:27:47;1.10;;;0.80;;
35496;SDS011;21609;49.298;6.844;2024-01-25T00:30:13;1.02;;;0.93;;
35496;SDS011;21609;49.298;6.844;2024-01-25T00:32:39;1.02;;;0.70;;
35496;SDS011;21609;49.298;6.844;2024-01-25T00:35:04;1.15;;;1.00;;
35496;SDS011;21609;49.298;6.844;2024-01-25T00:37:30;2.13;;;0.77;;
35496;SDS011;21609;49.298;6.844;2024-01-25T00:39:56;1.85;;;1.10;;
35496;SDS011;21609;49.298;6.844;2024-01-25T00:42:22;0.82;;;0.60;;
35496;SDS011;21609;49.298;6.844;2024-01-25T00:44:49;1.23;;;0.80;;
35496;SDS011;21609;49.298;6.844;2024-01-25T00:47:15;1.45;;;0.73;;
35496;SDS011;21609;49.298;6.844;2024-01-25T00:49:40;1.10;;;0.70;;
35496;SDS011;21609;49.298;6.844;2024-01-25T00:52:06;1.23;;;0.80;;
35496;SDS011;21609;49.298;6.844;2024-01-25T00:54:32;1.55;;;0.80;;
35496;SDS011;21609;49.298;6.844;2024-01-25T00:56:58;1.77;;;0.68;;
35496;SDS011;21609;49.298;6.844;2024-01-25T00:59:25;2.03;;;1.05;;
35496;SDS011;21609;49.298;6.844;2024-01-25T01:01:51;1.77;;;1.10;;
35496;SDS011;21609;49.298;6.844;2024-01-25T01:04:18;2.00;;;0.95;;
35496;SDS011;21609;49.298;6.844;2024-01-25T01:06:44;2.88;;;1.08;;
35496;SDS011;21609;49.298;6.844;2024-01-25T01:09:10;1.77;;;0.80;;
35496;SDS011;21609;49.298;6.844;2024-01-25T01:11:36;1.63;;;0.85;;
35496;SDS011;21609;49.298;6.844;2024-01-25T01:14:01;1.23;;;0.70;;
35496;SDS011;21609;49.298;6.844;2024-01-25T01:16:27;1.60;;;1.13;;
35496;SDS011;21609;49.298;6.844;2024-01-25T01:18:55;0.98;;;0.70;;
35496;SDS011;21609;49.298;6.844;2024-01-25T01:21:21;1.00;;;0.73;;
35496;SDS011;21609;49.298;6.844;2024-01-25T01:23:46;0.82;;;0.80;;
35496;SDS011;21609;49.298;6.844;2024-01-25T01:26:12;2.35;;;1.10;;
35496;SDS011;21609;49.298;6.844;2024-01-25T01:28:37;1.02;;;0.93;;
35496;SDS011;21609;49.298;6.844;2024-01-25T01:31:03;2.00;;;1.08;;
35496;SDS011;21609;49.298;6.844;2024-01-25T01:33:28;1.08;;;0.73;;
35496;SDS011;21609;49.298;6.844;2024-01-25T01:35:54;2.05;;;0.90;;
35496;SDS011;21609;49.298;6.844;2024-01-25T01:38:19;1.73;;;0.90;;
35496;SDS011;21609;49.298;6.844;2024-01-25T01:40:45;1.60;;;1.00;;
35496;SDS011;21609;49.298;6.844;2024-01-25T01:43:20;2.40;;;0.90;;
35496;SDS011;21609;49.298;6.844;2024-01-25T01:45:48;1.73;;;1.00;;
35496;SDS011;21609;49.298;6.844;2024-01-25T01:48:14;1.02;;;0.70;;
35496;SDS011;21609;49.298;6.844;2024-01-25T01:50:40;1.75;;;1.17;;
35496;SDS011;21609;49.298;6.844;2024-01-25T01:53:07;1.20;;;0.85;;
35496;SDS011;21609;49.298;6.844;2024-01-25T01:55:33;1.38;;;0.90;;
35496;SDS011;21609;49.298;6.844;2024-01-25T01:57:58;0.90;;;0.80;;
35496;SDS011;21609;49.298;6.844;2024-01-25T02:00:24;1.48;;;0.90;;
35496;SDS011;21609;49.298;6.844;2024-01-25T02:02:51;1.65;;;0.93;;
35496;SDS011;21609;49.298;6.844;2024-01-25T02:05:17;2.00;;;1.17;;
35496;SDS011;21609;49.298;6.844;2024-01-25T02:07:42;1.35;;;1.00;;
35496;SDS011;21609;49.298;6.844;2024-01-25T02:10:08;2.35;;;1.17;;
35496;SDS011;21609;49.298;6.844;2024-01-25T02:12:35;1.58;;;0.93;;
35496;SDS011;21609;49.298;6.844;2024-01-25T02:15:01;5.95;;;1.35;;
35496;SDS011;21609;49.298;6.844;2024-01-25T02:17:27;4.07;;;1.38;;
35496;SDS011;21609;49.298;6.844;2024-01-25T02:19:52;6.18;;;2.30;;
35496;SDS011;21609;49.298;6.844;2024-01-25T02:22:19;3.17;;;1.20;;
35496;SDS011;21609;49.298;6.844;2024-01-25T02:24:44;5.88;;;1.13;;
35496;SDS011;21609;49.298;6.844;2024-01-25T02:27:10;2.83;;;1.10;;
35496;SDS011;21609;49.298;6.844;2024-01-25T02:29:36;5.18;;;1.10;;
35496;SDS011;21609;49.298;6.844;2024-01-25T02:32:02;4.85;;;1.42;;
35496;SDS011;21609;49.298;6.844;2024-01-25T02:34:27;3.47;;;1.15;;
35496;SDS011;21609;49.298;6.844;2024-01-25T02:36:53;3.90;;;1.17;;
35496;SDS011;21609;49.298;6.844;2024-01-25T02:39:19;3.42;;;1.00;;
35496;SDS011;21609;49.298;6.844;2024-01-25T02:41:44;2.47;;;1.15;;
35496;SDS011;21609;49.298;6.844;2024-01-25T02:44:11;5.13;;;1.08;;
35496;SDS011;21609;49.298;6.844;2024-01-25T02:46:36;2.72;;;1.48;;
35496;SDS011;21609;49.298;6.844;2024-01-25T02:49:03;4.72;;;1.30;;
35496;SDS011;21609;49.298;6.844;2024-01-25T02:51:29;2.00;;;1.35;;
35496;SDS011;21609;49.298;6.844;2024-01-25T02:53:54;4.22;;;1.00;;
35496;SDS011;21609;49.298;6.844;2024-01-25T02:56:20;3.33;;;1.48;;
35496;SDS011;21609;49.298;6.844;2024-01-25T02:58:46;4.15;;;1.10;;
35496;SDS011;21609;49.298;6.844;2024-01-25T03:01:11;2.50;;;1.25;;
35496;SDS011;21609;49.298;6.844;2024-01-25T03:03:37;2.58;;;1.02;;
35496;SDS011;21609;49.298;6.844;2024-01-25T03:06:05;3.30;;;1.30;;
35496;SDS011;21609;49.298;6.844;2024-01-25T03:08:31;1.45;;;0.80;;
35496;SDS011;21609;49.298;6.844;2024-01-25T03:10:57;2.00;;;1.17;;
35496;SDS011;21609;49.298;6.844;2024-01-25T03:13:22;2.45;;;1.27;;
35496;SDS011;21609;49.298;6.844;2024-01-25T03:15:48;2.35;;;1.25;;
35496;SDS011;21609;49.298;6.844;2024-01-25T03:18:13;1.92;;;0.90;;
35496;SDS011;21609;49.298;6.844;2024-01-25T03:20:39;3.13;;;0.85;;
35496;SDS011;21609;49.298;6.844;2024-01-25T03:23:04;2.28;;;1.38;;
35496;SDS011;21609;49.298;6.844;2024-01-25T03:25:30;2.22;;;1.10;;
35496;SDS011;21609;49.298;6.844;2024-01-25T03:27:56;2.42;;;1.42;;
35496;SDS011;21609;49.298;6.844;2024-01-25T03:30:22;2.53;;;0.80;;
35496;SDS011;21609;49.298;6.844;2024-01-25T03:32:47;2.88;;;1.42;;
35496;SDS011;21609;49.298;6.844;2024-01-25T03:35:13;2.42;;;1.00;;
35496;SDS011;21609;49.298;6.844;2024-01-25T03:37:38;2.08;;;1.30;;
35496;SDS011;21609;49.298;6.844;2024-01-25T03:40:04;2.92;;;1.17;;
35496;SDS011;21609;49.298;6.844;2024-01-25T03:42:30;2.25;;;1.15;;
35496;SDS011;21609;49.298;6.844;2024-01-25T03:44:56;2.47;;;0.90;;
35496;SDS011;21609;49.298;6.844;2024-01-25T03:47:22;1.92;;;1.00;;
35496;SDS011;21609;49.298;6.844;2024-01-25T03:49:47;1.15;;;1.00;;
35496;SDS011;21609;49.298;6.844;2024-01-25T03:52:13;1.73;;;0.80;;
35496;SDS011;21609;49.298;6.844;2024-01-25T03:54:38;1.48;;;0.80;;
35496;SDS011;21609;49.298;6.844;2024-01-25T03:57:04;4.75;;;1.35;;
35496;SDS011;21609;49.298;6.844;2024-01-25T03:59:29;1.05;;;0.93;;
35496;SDS011;21609;49.298;6.844;2024-01-25T04:01:56;2.03;;;0.82;;
35496;SDS011;21609;49.298;6.844;2024-01-25T04:04:21;2.25;;;1.10;;
35496;SDS011;21609;49.298;6.844;2024-01-25T04:06:47;1.67;;;0.85;;
35496;SDS011;21609;49.298;6.844;2024-01-25T04:09:13;1.83;;;1.10;;
35496;SDS011;21609;49.298;6.844;2024-01-25T04:11:40;2.33;;;1.00;;
35496;SDS011;21609;49.298;6.844;2024-01-25T04:14:06;1.42;;;0.90;;
35496;SDS011;21609;49.298;6.844;2024-01-25T04:16:32;3.58;;;1.20;;
35496;SDS011;21609;49.298;6.844;2024-01-25T04:18:58;3.38;;;1.05;;
35496;SDS011;21609;49.298;6.844;2024-01-25T04:21:23;1.58;;;1.08;;
35496;SDS011;21609;49.298;6.844;2024-01-25T04:23:49;3.08;;;1.00;;
35496;SDS011;21609;49.298;6.844;2024-01-25T04:26:15;2.60;;;1.17;;
35496;SDS011;21609;49.298;6.844;2024-01-25T04:28:43;1.65;;;1.00;;
35496;SDS011;21609;49.298;6.844;2024-01-25T04:31:09;2.08;;;1.02;;
35496;SDS011;21609;49.298;6.844;2024-01-25T04:33:35;2.85;;;1.17;;
35496;SDS011;21609;49.298;6.844;2024-01-25T04:36:00;2.35;;;1.13;;
35496;SDS011;21609;49.298;6.844;2024-01-25T04:38:26;2.60;;;1.02;;
35496;SDS011;21609;49.298;6.844;2024-01-25T04:40:52;2.53;;;1.00;;
35496;SDS011;21609;49.298;6.844;2024-01-25T04:43:17;2.55;;;1.33;;
35496;SDS011;21609;49.298;6.844;2024-01-25T04:45:43;1.63;;;0.98;;
35496;SDS011;21609;49.298;6.844;2024-01-25T04:48:08;4.07;;;1.10;;
35496;SDS011;21609;49.298;6.844;2024-01-25T04:50:34;1.92;;;1.10;;
35496;SDS011;21609;49.298;6.844;2024-01-25T04:53:01;3.03;;;1.00;;
35496;SDS011;21609;49.298;6.844;2024-01-25T04:55:27;2.20;;;1.38;;
35496;SDS011;21609;49.298;6.844;2024-01-25T04:57:53;2.45;;;1.02;;
35496;SDS011;21609;49.298;6.844;2024-01-25T05:00:18;1.30;;;0.82;;
35496;SDS011;21609;49.298;6.844;2024-01-25T05:02:46;1.60;;;0.80;;
35496;SDS011;21609;49.298;6.844;2024-01-25T05:05:12;1.73;;;0.90;;
35496;SDS011;21609;49.298;6.844;2024-01-25T05:07:37;3.28;;;1.02;;
35496;SDS011;21609;49.298;6.844;2024-01-25T05:10:03;1.73;;;1.05;;
35496;SDS011;21609;49.298;6.844;2024-01-25T05:12:29;1.10;;;0.77;;
35496;SDS011;21609;49.298;6.844;2024-01-25T05:14:54;1.75;;;0.85;;
35496;SDS011;21609;49.298;6.844;2024-01-25T05:17:20;2.85;;;1.10;;
35496;SDS011;21609;49.298;6.844;2024-01-25T05:19:46;3.67;;;0.98;;
35496;SDS011;21609;49.298;6.844;2024-01-25T05:22:11;1.85;;;0.90;;
35496;SDS011;21609;49.298;6.844;2024-01-25T05:24:37;1.58;;;0.85;;
35496;SDS011;21609;49.298;6.844;2024-01-25T05:27:02;1.75;;;0.90;;
35496;SDS011;21609;49.298;6.844;2024-01-25T05:29:28;1.08;;;0.80;;
35496;SDS011;21609;49.298;6.844;2024-01-25T05:31:53;1.17;;;0.80;;
35496;SDS011;21609;49.298;6.844;2024-01-25T05:34:19;3.38;;;0.82;;
35496;SDS011;21609;49.298;6.844;2024-01-25T05:36:44;2.92;;;1.45;;
35496;SDS011;21609;49.298;6.844;2024-01-25T05:39:10;0.98;;;0.57;;
35496;SDS011;21609;49.298;6.844;2024-01-25T05:41:36;2.63;;;0.90;;
35496;SDS011;21609;49.298;6.844;2024-01-25T05:44:01;2.33;;;0.93;;
35496;SDS011;21609;49.298;6.844;2024-01-25T05:46:27;2.10;;;1.15;;
35496;SDS011;21609;49.298;6.844;2024-01-25T05:48:53;0.80;;;0.60;;
35496;SDS011;21609;49.298;6.844;2024-01-25T05:51:18;1.27;;;0.95;;
35496;SDS011;21609;49.298;6.844;2024-01-25T05:53:44;1.50;;;1.00;;
35496;SDS011;21609;49.298;6.844;2024-01-25T05:56:09;1.55;;;0.88;;
35496;SDS011;21609;49.298;6.844;2024-01-25T05:58:35;2.38;;;0.90;;
35496;SDS011;21609;49.298;6.844;2024-01-25T06:01:01;2.03;;;0.85;;
35496;SDS011;21609;49.298;6.844;2024-01-25T06:03:27;1.88;;;0.90;;
35496;SDS011;21609;49.298;6.844;2024-01-25T06:05:53;2.35;;;1.00;;
35496;SDS011;21609;49.298;6.844;2024-01-25T06:08:18;1.83;;;1.00;;
35496;SDS011;21609;49.298;6.844;2024-01-25T06:10:44;1.55;;;0.80;;
35496;SDS011;21609;49.298;6.844;2024-01-25T06:13:09;1.42;;;0.73;;
35496;SDS011;21609;49.298;6.844;2024-01-25T06:15:35;1.63;;;1.10;;
35496;SDS011;21609;49.298;6.844;2024-01-25T06:18:00;2.15;;;0.82;;
35496;SDS011;21609;49.298;6.844;2024-01-25T06:20:26;1.70;;;1.10;;
35496;SDS011;21609;49.298;6.844;2024-01-25T06:22:51;2.17;;;0.98;;
35496;SDS011;21609;49.298;6.844;2024-01-25T06:25:17;1.52;;;1.05;;
35496;SDS011;21609;49.298;6.844;2024-01-25T06:27:42;1.58;;;0.90;;
35496;SDS011;21609;49.298;6.844;2024-01-25T06:30:08;1.98;;;1.00;;
35496;SDS011;21609;49.298;6.844;2024-01-25T06:32:34;3.00;;;1.35;;
35496;SDS011;21609;49.298;6.844;2024-01-25T06:35:00;1.50;;;0.85;;
35496;SDS011;21609;49.298;6.844;2024-01-25T06:37:25;1.73;;;0.85;;
35496;SDS011;21609;49.298;6.844;2024-01-25T06:39:51;1.67;;;0.90;;
35496;SDS011;21609;49.298;6.844;2024-01-25T06:42:17;2.15;;;0.95;;
35496;SDS011;21609;49.298;6.844;2024-01-25T06:44:44;4.03;;;2.10;;
35496;SDS011;21609;49.298;6.844;2024-01-25T06:47:09;4.45;;;1.60;;
35496;SDS011;21609;49.298;6.844;2024-01-25T06:49:35;2.65;;;1.00;;
35496;SDS011;21609;49.298;6.844;2024-01-25T06:52:01;6.65;;;1.17;;
35496;SDS011;21609;49.298;6.844;2024-01-25T06:54:26;6.00;;;1.48;;
35496;SDS011;21609;49.298;6.844;2024-01-25T06:56:52;3.63;;;1.25;;
35496;SDS011;21609;49.298;6.844;2024-01-25T06:59:17;2.88;;;1.27;;
35496;SDS011;21609;49.298;6.844;2024-01-25T07:01:46;6.47;;;1.35;;
35496;SDS011;21609;49.298;6.844;2024-01-25T07:04:12;2.55;;;1.15;;
35496;SDS011;21609;49.298;6.844;2024-01-25T07:06:37;4.95;;;1.50;;
35496;SDS011;21609;49.298;6.844;2024-01-25T07:09:03;2.35;;;1.20;;
35496;SDS011;21609;49.298;6.844;2024-01-25T07:11:29;2.40;;;0.98;;
35496;SDS011;21609;49.298;6.844;2024-01-25T07:13:55;3.47;;;1.33;;
35496;SDS011;21609;49.298;6.844;2024-01-25T07:16:20;2.83;;;0.98;;
35496;SDS011;21609;49.298;6.844;2024-01-25T07:18:46;1.98;;;1.10;;
35496;SDS011;21609;49.298;6.844;2024-01-25T07:21:12;4.45;;;1.55;;
35496;SDS011;21609;49.298;6.844;2024-01-25T07:23:37;4.95;;;1.15;;
35496;SDS011;21609;49.298;6.844;2024-01-25T07:26:06;3.58;;;0.88;;
35496;SDS011;21609;49.298;6.844;2024-01-25T07:28:31;3.78;;;1.20;;
35496;SDS011;21609;49.298;6.844;2024-01-25T07:30:57;2.70;;;1.17;;
35496;SDS011;21609;49.298;6.844;2024-01-25T07:33:22;4.93;;;1.27;;
35496;SDS011;21609;49.298;6.844;2024-01-25T07:35:48;6.60;;;1.10;;
35496;SDS011;21609;49.298;6.844;2024-01-25T07:38:14;5.32;;;1.00;;
35496;SDS011;21609;49.298;6.844;2024-01-25T07:40:40;2.53;;;0.93;;
35496;SDS011;21609;49.298;6.844;2024-01-25T07:43:06;3.28;;;1.30;;
35496;SDS011;21609;49.298;6.844;2024-01-25T07:45:32;1.58;;;0.90;;
35496;SDS011;21609;49.298;6.844;2024-01-25T07:47:58;2.42;;;1.10;;
35496;SDS011;21609;49.298;6.844;2024-01-25T07:50:24;1.98;;;1.00;;
35496;SDS011;21609;49.298;6.844;2024-01-25T07:52:53;3.20;;;1.50;;
35496;SDS011;21609;49.298;6.844;2024-01-25T07:55:19;2.75;;;1.20;;
35496;SDS011;21609;49.298;6.844;2024-01-25T07:57:45;2.38;;;1.33;;
35496;SDS011;21609;49.298;6.844;2024-01-25T08:00:11;3.90;;;1.05;;
35496;SDS011;21609;49.298;6.844;2024-01-25T08:02:36;3.33;;;1.45;;
35496;SDS011;21609;49.298;6.844;2024-01-25T08:05:05;7.28;;;1.10;;
35496;SDS011;21609;49.298;6.844;2024-01-25T08:07:31;3.20;;;1.13;;
35496;SDS011;21609;49.298;6.844;2024-01-25T08:09:56;3.72;;;1.42;;
35496;SDS011;21609;49.298;6.844;2024-01-25T08:12:23;3.65;;;1.23;;
35496;SDS011;21609;49.298;6.844;2024-01-25T08:14:50;6.10;;;1.40;;
35496;SDS011;21609;49.298;6.844;2024-01-25T08:17:15;4.78;;;1.50;;
35496;SDS011;21609;49.298;6.844;2024-01-25T08:19:41;4.25;;;1.45;;
35496;SDS011;21609;49.298;6.844;2024-01-25T08:22:06;2.60;;;1.30;;
35496;SDS011;21609;49.298;6.844;2024-01-25T08:24:32;4.68;;;1.70;;
35496;SDS011;21609;49.298;6.844;2024-01-25T08:26:58;4.75;;;1.80;;
35496;SDS011;21609;49.298;6.844;2024-01-25T08:29:23;7.00;;;1.98;;
35496;SDS011;21609;49.298;6.844;2024-01-25T08:31:49;1.13;;;0.93;;
35496;SDS011;21609;49.298;6.844;2024-01-25T08:34:14;7.30;;;4.25;;
35496;SDS011;21609;49.298;6.844;2024-01-25T08:36:40;5.35;;;3.95;;
35496;SDS011;21609;49.298;6.844;2024-01-25T08:39:06;3.58;;;3.08;;
35496;SDS011;21609;49.298;6.844;2024-01-25T08:41:33;4.72;;;3.15;;
35496;SDS011;21609;49.298;6.844;2024-01-25T08:44:00;8.93;;;3.40;;
35496;SDS011;21609;49.298;6.844;2024-01-25T08:46:25;4.63;;;2.80;;
35496;SDS011;21609;49.298;6.844;2024-01-25T08:48:51;7.03;;;2.88;;
35496;SDS011;21609;49.298;6.844;2024-01-25T08:51:17;6.60;;;3.05;;
35496;SDS011;21609;49.298;6.844;2024-01-25T08:53:42;6.72;;;2.80;;
35496;SDS011;21609;49.298;6.844;2024-01-25T08:56:08;5.03;;;2.30;;
35496;SDS011;21609;49.298;6.844;2024-01-25T08:58:33;6.00;;;2.47;;
35496;SDS011;21609;49.298;6.844;2024-01-25T09:00:59;4.78;;;2.53;;
35496;SDS011;21609;49.298;6.844;2024-01-25T09:03:25;4.43;;;2.08;;
35496;SDS011;21609;49.298;6.844;2024-01-25T09:05:51;5.68;;;2.72;;
35496;SDS011;21609;49.298;6.844;2024-01-25T09:08:16;3.70;;;1.75;;
35496;SDS011;21609;49.298;6.844;2024-01-25T09:10:42;6.07;;;1.98;;
35496;SDS011;21609;49.298;6.844;2024-01-25T09:13:09;2.47;;;1.67;;
35496;SDS011;21609;49.298;6.844;2024-01-25T09:15:35;7.85;;;2.63;;
35496;SDS011;21609;49.298;6.844;2024-01-25T09:18:01;2.47;;;1.50;;
35496;SDS011;21609;49.298;6.844;2024-01-25T09:20:26;4.90;;;2.25;;
35496;SDS011;21609;49.298;6.844;2024-01-25T09:22:52;2.80;;;1.70;;
35496;SDS011;21609;49.298;6.844;2024-01-25T09:25:20;2.35;;;1.98;;
35496;SDS011;21609;49.298;6.844;2024-01-25T09:27:47;3.85;;;2.15;;
35496;SDS011;21609;49.298;6.844;2024-01-25T09:30:13;4.03;;;2.45;;
35496;SDS011;21609;49.298;6.844;2024-01-25T09:32:39;5.43;;;2.92;;
35496;SDS011;21609;49.298;6.844;2024-01-25T09:35:05;5.38;;;2.75;;
35496;SDS011;21609;49.298;6.844;2024-01-25T09:37:30;3.30;;;2.03;;
35496;SDS011;21609;49.298;6.844;2024-01-25T09:39:56;3.50;;;1.90;;
35496;SDS011;21609;49.298;6.844;2024-01-25T09:42:23;5.32;;;2.22;;
35496;SDS011;21609;49.298;6.844;2024-01-25T09:44:49;6.15;;;2.47;;
35496;SDS011;21609;49.298;6.844;2024-01-25T09:47:17;3.25;;;1.80;;
35496;SDS011;21609;49.298;6.844;2024-01-25T09:49:45;3.40;;;2.05;;
35496;SDS011;21609;49.298;6.844;2024-01-25T09:52:12;2.67;;;1.90;;
35496;SDS011;21609;49.298;6.844;2024-01-25T09:54:38;2.95;;;2.05;;
35496;SDS011;21609;49.298;6.844;2024-01-25T09:57:13;4.10;;;2.22;;
35496;SDS011;21609;49.298;6.844;2024-01-25T09:59:42;3.05;;;2.15;;
35496;SDS011;21609;49.298;6.844;2024-01-25T10:02:09;2.83;;;1.90;;
35496;SDS011;21609;49.298;6.844;2024-01-25T10:04:35;2.40;;;1.73;;
35496;SDS011;21609;49.298;6.844;2024-01-25T10:07:01;3.35;;;2.05;;
35496;SDS011;21609;49.298;6.844;2024-01-25T10:09:27;2.50;;;1.65;;
35496;SDS011;21609;49.298;6.844;2024-01-25T10:11:52;2.03;;;1.80;;
35496;SDS011;21609;49.298;6.844;2024-01-25T10:14:18;3.35;;;1.92;;
35496;SDS011;21609;49.298;6.844;2024-01-25T10:16:44;7.20;;;1.77;;
35496;SDS011;21609;49.298;6.844;2024-01-25T10:19:10;4.45;;;2.03;;
35496;SDS011;21609;49.298;6.844;2024-01-25T10:21:37;3.78;;;1.90;;
35496;SDS011;21609;49.298;6.844;2024-01-25T10:24:03;3.15;;;2.10;;
35496;SDS011;21609;49.298;6.844;2024-01-25T10:26:30;6.05;;;1.60;;
35496;SDS011;21609;49.298;6.844;2024-01-25T10:28:56;2.75;;;2.00;;
35496;SDS011;21609;49.298;6.844;2024-01-25T10:31:23;4.15;;;2.20;;
35496;SDS011;21609;49.298;6.844;2024-01-25T10:33:51;4.47;;;2.10;;
35496;SDS011;21609;49.298;6.844;2024-01-25T10:36:18;2.80;;;1.77;;
35496;SDS011;21609;49.298;6.844;2024-01-25T10:38:45;1.80;;;1.30;;
35496;SDS011;21609;49.298;6.844;2024-01-25T10:41:13;2.67;;;1.52;;
35496;SDS011;21609;49.298;6.844;2024-01-25T10:43:40;2.22;;;1.40;;
35496;SDS011;21609;49.298;6.844;2024-01-25T10:46:06;5.88;;;1.88;;
35496;SDS011;21609;49.298;6.844;2024-01-25T10:48:34;3.35;;;2.05;;
35496;SDS011;21609;49.298;6.844;2024-01-25T10:51:00;2.50;;;1.55;;
35496;SDS011;21609;49.298;6.844;2024-01-25T10:53:29;3.58;;;2.35;;
35496;SDS011;21609;49.298;6.844;2024-01-25T10:55:57;5.93;;;1.67;;
35496;SDS011;21609;49.298;6.844;2024-01-25T10:58:30;2.95;;;1.88;;
35496;SDS011;21609;49.298;6.844;2024-01-25T11:00:56;3.05;;;2.03;;
35496;SDS011;21609;49.298;6.844;2024-01-25T11:03:25;12.00;;;2.40;;
35496;SDS011;21609;49.298;6.844;2024-01-25T11:05:52;2.90;;;1.95;;
35496;SDS011;21609;49.298;6.844;2024-01-25T11:08:30;2.15;;;1.70;;
35496;SDS011;21609;49.298;6.844;2024-01-25T11:10:56;4.63;;;2.10;;
35496;SDS011;21609;49.298;6.844;2024-01-25T11:13:28;3.35;;;1.98;;
35496;SDS011;21609;49.298;6.844;2024-01-25T11:15:54;3.20;;;1.77;;
35496;SDS011;21609;49.298;6.844;2024-01-25T11:18:20;3.47;;;2.13;;
35496;SDS011;21609;49.298;6.844;2024-01-25T11:20:50;2.20;;;1.80;;
35496;SDS011;21609;49.298;6.844;2024-01-25T11:23:16;3.22;;;1.83;;
35496;SDS011;21609;49.298;6.844;2024-01-25T11:25:44;2.58;;;1.73;;
35496;SDS011;21609;49.298;6.844;2024-01-25T11:28:11;1.63;;;1.20;;
35496;SDS011;21609;49.298;6.844;2024-01-25T11:30:39;3.55;;;2.13;;
35496;SDS011;21609;49.298;6.844;2024-01-25T11:33:08;3.30;;;1.70;;
35496;SDS011;21609;49.298;6.844;2024-01-25T11:35:34;2.67;;;1.90;;
35496;SDS011;21609;49.298;6.844;2024-01-25T11:38:00;3.88;;;1.80;;
35496;SDS011;21609;49.298;6.844;2024-01-25T11:40:26;3.95;;;1.65;;
35496;SDS011;21609;49.298;6.844;2024-01-25T11:42:53;2.92;;;1.55;;
35496;SDS011;21609;49.298;6.844;2024-01-25T11:45:19;2.55;;;1.30;;
35496;SDS011;21609;49.298;6.844;2024-01-25T11:47:44;3.88;;;1.85;;
35496;SDS011;21609;49.298;6.844;2024-01-25T11:50:11;2.90;;;1.50;;
35496;SDS011;21609;49.298;6.844;2024-01-25T11:52:37;3.17;;;2.03;;
35496;SDS011;21609;49.298;6.844;2024-01-25T11:55:04;3.63;;;1.63;;
35496;SDS011;21609;49.298;6.844;2024-01-25T11:57:34;2.05;;;1.30;;
35496;SDS011;21609;49.298;6.844;2024-01-25T12:00:02;4.07;;;1.88;;
35496;SDS011;21609;49.298;6.844;2024-01-25T12:02:29;1.85;;;1.40;;
35496;SDS011;21609;49.298;6.844;2024-01-25T12:04:56;3.08;;;1.63;;
35496;SDS011;21609;49.298;6.844;2024-01-25T12:07:22;6.03;;;1.73;;
35496;SDS011;21609;49.298;6.844;2024-01-25T12:09:57;4.03;;;1.58;;
35496;SDS011;21609;49.298;6.844;2024-01-25T12:12:30;3.63;;;1.45;;
35496;SDS011;21609;49.298;6.844;2024-01-25T12:14:59;1.33;;;0.90;;
35496;SDS011;21609;49.298;6.844;2024-01-25T12:17:29;2.30;;;1.50;;
35496;SDS011;21609;49.298;6.844;2024-01-25T12:19:59;2.13;;;1.63;;
35496;SDS011;21609;49.298;6.844;2024-01-25T12:22:28;1.85;;;1.20;;
35496;SDS011;21609;49.298;6.844;2024-01-25T12:24:54;3.03;;;1.87;;
35496;SDS011;21609;49.298;6.844;2024-01-25T12:27:21;2.03;;;1.20;;
35496;SDS011;21609;49.298;6.844;2024-01-25T12:29:47;1.60;;;1.50;;
35496;SDS011;21609;49.298;6.844;2024-01-25T12:32:14;2.25;;;1.48;;
35496;SDS011;21609;49.298;6.844;2024-01-25T12:34:39;5.15;;;1.55;;
35496;SDS011;21609;49.298;6.844;2024-01-25T12:37:06;3.30;;;1.60;;
35496;SDS011;21609;49.298;6.844;2024-01-25T12:39:32;5.47;;;1.73;;
35496;SDS011;21609;49.298;6.844;2024-01-25T12:41:58;3.15;;;1.67;;
35496;SDS011;21609;49.298;6.844;2024-01-25T12:44:23;2.03;;;1.30;;
35496;SDS011;21609;49.298;6.844;2024-01-25T12:46:49;2.45;;;1.85;;
35496;SDS011;21609;49.298;6.844;2024-01-25T12:49:15;4.30;;;1.85;;
35496;SDS011;21609;49.298;6.844;2024-01-25T12:51:40;2.33;;;1.17;;
35496;SDS011;21609;49.298;6.844;2024-01-25T12:54:06;4.25;;;1.10;;
35496;SDS011;21609;49.298;6.844;2024-01-25T12:56:32;3.85;;;1.30;;
35496;SDS011;21609;49.298;6.844;2024-01-25T12:58:58;6.53;;;1.80;;
35496;SDS011;21609;49.298;6.844;2024-01-25T13:01:23;4.18;;;1.33;;
35496;SDS011;21609;49.298;6.844;2024-01-25T13:03:49;2.38;;;1.40;;
35496;SDS011;21609;49.298;6.844;2024-01-25T13:06:15;1.85;;;1.40;;
35496;SDS011;21609;49.298;6.844;2024-01-25T13:08:40;7.82;;;2.15;;
35496;SDS011;21609;49.298;6.844;2024-01-25T13:11:06;6.05;;;1.00;;
35496;SDS011;21609;49.298;6.844;2024-01-25T13:13:32;2.80;;;1.63;;
35496;SDS011;21609;49.298;6.844;2024-01-25T13:15:57;2.70;;;1.20;;
35496;SDS011;21609;49.298;6.844;2024-01-25T13:18:23;3.13;;;1.70;;
35496;SDS011;21609;49.298;6.844;2024-01-25T13:20:48;3.72;;;1.27;;
35496;SDS011;21609;49.298;6.844;2024-01-25T13:23:14;1.85;;;1.20;;
35496;SDS011;21609;49.298;6.844;2024-01-25T13:25:39;3.42;;;1.60;;
35496;SDS011;21609;49.298;6.844;2024-01-25T13:28:05;4.40;;;1.50;;
35496;SDS011;21609;49.298;6.844;2024-01-25T13:30:31;2.65;;;1.38;;
35496;SDS011;21609;49.298;6.844;2024-01-25T13:32:56;2.28;;;1.25;;
35496;SDS011;21609;49.298;6.844;2024-01-25T13:35:22;2.58;;;1.48;;
35496;SDS011;21609;49.298;6.844;2024-01-25T13:37:48;3.35;;;1.35;;
35496;SDS011;21609;49.298;6.844;2024-01-25T13:40:13;3.83;;;1.30;;
35496;SDS011;21609;49.298;6.844;2024-01-25T13:42:39;4.22;;;1.30;;
35496;SDS011;21609;49.298;6.844;2024-01-25T13:45:06;3.55;;;1.30;;
35496;SDS011;21609;49.298;6.844;2024-01-25T13:47:32;4.22;;;1.50;;
35496;SDS011;21609;49.298;6.844;2024-01-25T13:49:57;1.98;;;1.20;;
35496;SDS011;21609;49.298;6.844;2024-01-25T13:52:23;1.88;;;1.42;;
35496;SDS011;21609;49.298;6.844;2024-01-25T13:54:48;1.95;;;1.00;;
35496;SDS011;21609;49.298;6.844;2024-01-25T13:57:14;1.30;;;1.10;;
35496;SDS011;21609;49.298;6.844;2024-01-25T13:59:40;2.30;;;1.10;;
35496;SDS011;21609;49.298;6.844;2024-01-25T14:02:06;1.80;;;1.23;;
35496;SDS011;21609;49.298;6.844;2024-01-25T14:04:32;1.70;;;1.15;;
35496;SDS011;21609;49.298;6.844;2024-01-25T14:06:57;2.30;;;1.02;;
35496;SDS011;21609;49.298;6.844;2024-01-25T14:09:23;2.92;;;1.42;;
35496;SDS011;21609;49.298;6.844;2024-01-25T14:11:48;1.30;;;1.10;;
35496;SDS011;21609;49.298;6.844;2024-01-25T14:14:14;3.13;;;1.40;;
35496;SDS011;21609;49.298;6.844;2024-01-25T14:16:40;2.42;;;1.73;;
35496;SDS011;21609;49.298;6.844;2024-01-25T14:19:05;1.88;;;1.23;;
35496;SDS011;21609;49.298;6.844;2024-01-25T14:21:31;2.78;;;1.70;;
35496;SDS011;21609;49.298;6.844;2024-01-25T14:23:56;4.22;;;1.95;;
35496;SDS011;21609;49.298;6.844;2024-01-25T14:26:22;3.42;;;2.00;;
35496;SDS011;21609;49.298;6.844;2024-01-25T14:28:48;3.25;;;1.58;;
35496;SDS011;21609;49.298;6.844;2024-01-25T14:31:14;3.53;;;1.50;;
35496;SDS011;21609;49.298;6.844;2024-01-25T14:33:39;2.28;;;1.35;;
35496;SDS011;21609;49.298;6.844;2024-01-25T14:36:05;2.50;;;1.55;;
35496;SDS011;21609;49.298;6.844;2024-01-25T14:38:30;4.15;;;1.63;;
35496;SDS011;21609;49.298;6.844;2024-01-25T14:40:57;2.38;;;1.45;;